createdAt,value
2023-01-09T00:01:24.402Z,7.15
2023-01-09T00:03:51.089Z,7.16
2023-01-09T00:06:17.711Z,7.29
2023-01-09T00:08:44.607Z,7.14
2023-01-09T00:11:11.273Z,7.01
2023-01-09T00:13:37.961Z,6.89
2023-01-09T00:16:05.586Z,6.77
2023-01-09T00:18:32.202Z,6.80
2023-01-09T00:21:02.478Z,6.86
2023-01-09T00:23:29.147Z,7.11
2023-01-09T00:26:09.355Z,7.17
2023-01-09T00:28:36.046Z,6.97
2023-01-09T00:31:03.206Z,7.23
2023-01-09T00:33:34.974Z,7.59
2023-01-09T00:36:01.621Z,7.23
2023-01-09T00:38:28.228Z,7.04
2023-01-09T00:40:54.864Z,6.67
2023-01-09T00:43:22.734Z,6.59
2023-01-09T00:45:49.418Z,6.65
2023-01-09T00:48:17.635Z,7.07
2023-01-09T00:50:44.225Z,7.30
2023-01-09T00:53:16.435Z,7.28
2023-01-09T00:55:43.038Z,7.34
2023-01-09T00:58:09.732Z,7.08
2023-01-09T01:00:36.363Z,6.99
2023-01-09T01:03:03.048Z,7.00
2023-01-09T01:05:48.037Z,6.94
2023-01-09T01:08:15.956Z,6.93
2023-01-09T01:10:42.662Z,7.06
2023-01-09T01:13:09.497Z,7.08
2023-01-09T01:15:39.299Z,7.03
2023-01-09T01:18:05.928Z,7.03
2023-01-09T01:20:32.530Z,6.90
2023-01-09T01:22:59.225Z,6.95
2023-01-09T01:25:25.845Z,6.97
2023-01-09T01:27:52.480Z,6.98
2023-01-09T01:30:19.896Z,6.91
2023-01-09T01:32:46.536Z,6.79
2023-01-09T01:35:13.237Z,6.70
2023-01-09T01:37:40.086Z,6.63
2023-01-09T01:40:07.735Z,6.59
2023-01-09T01:42:34.439Z,6.58
2023-01-09T01:45:02.387Z,6.55
2023-01-09T01:47:49.191Z,6.60
2023-01-09T01:50:41.258Z,6.61
2023-01-09T01:53:16.577Z,6.59
2023-01-09T01:55:57.079Z,6.61
2023-01-09T01:58:23.698Z,6.38
2023-01-09T02:00:50.838Z,6.48
2023-01-09T02:03:18.546Z,6.54
2023-01-09T02:05:45.198Z,6.57
2023-01-09T02:08:11.848Z,6.75
2023-01-09T02:10:38.444Z,6.66
2023-01-09T02:13:05.064Z,6.71
2023-01-09T02:16:04.199Z,6.63
2023-01-09T02:19:04.951Z,6.71
2023-01-09T02:21:47.056Z,6.57
2023-01-09T02:24:39.283Z,6.61
2023-01-09T02:27:40.096Z,6.70
2023-01-09T02:30:15.540Z,6.59
2023-01-09T02:32:45.932Z,6.59
2023-01-09T02:35:34.375Z,6.57
2023-01-09T02:38:44.102Z,6.53
2023-01-09T02:41:24.166Z,6.63
2023-01-09T02:44:20.379Z,6.57
2023-01-09T02:46:46.993Z,6.68
2023-01-09T02:49:14.032Z,6.66
2023-01-09T02:51:50.281Z,6.69
2023-01-09T02:54:55.720Z,6.72
2023-01-09T02:57:28.538Z,6.75
2023-01-09T03:00:01.035Z,6.79
2023-01-09T03:02:48.469Z,6.95
2023-01-09T03:05:15.024Z,6.91
2023-01-09T03:07:55.760Z,6.89
2023-01-09T03:10:26.913Z,6.92
2023-01-09T03:12:54.334Z,7.04
2023-01-09T03:15:22.483Z,7.10
2023-01-09T03:17:49.187Z,7.11
2023-01-09T03:20:17.836Z,6.76
2023-01-09T03:23:02.411Z,6.72
2023-01-09T03:25:29.492Z,6.75
2023-01-09T03:28:05.635Z,6.55
2023-01-09T03:30:32.963Z,6.56
2023-01-09T03:32:59.597Z,6.62
2023-01-09T03:35:26.293Z,6.55
2023-01-09T03:37:52.902Z,6.64
2023-01-09T03:40:20.107Z,6.58
2023-01-09T03:42:46.764Z,6.68
2023-01-09T03:45:13.623Z,6.61
2023-01-09T03:47:40.254Z,6.59
2023-01-09T03:50:07.706Z,6.58
2023-01-09T03:52:36.035Z,6.56
2023-01-09T03:55:02.830Z,6.38
2023-01-09T03:57:29.484Z,6.60
2023-01-09T03:59:56.107Z,6.63
2023-01-09T04:02:22.768Z,6.45
2023-01-09T04:04:49.371Z,6.72
2023-01-09T04:07:16.028Z,6.75
2023-01-09T04:09:42.653Z,6.59
2023-01-09T04:12:09.295Z,6.59
2023-01-09T04:14:35.905Z,6.86
2023-01-09T04:17:02.573Z,6.98
2023-01-09T04:19:29.189Z,6.92
2023-01-09T04:21:55.818Z,6.68
2023-01-09T04:24:22.445Z,6.81
2023-01-09T04:26:49.093Z,6.93
2023-01-09T04:29:15.719Z,6.70
2023-01-09T04:31:42.369Z,6.53
2023-01-09T04:34:09.043Z,6.61
2023-01-09T04:36:36.309Z,6.68
2023-01-09T04:39:03.288Z,6.83
2023-01-09T04:41:48.218Z,6.89
2023-01-09T04:44:22.850Z,6.79
2023-01-09T04:46:49.478Z,6.84
2023-01-09T04:49:16.119Z,6.87
2023-01-09T04:51:42.740Z,6.86
2023-01-09T04:54:09.340Z,6.72
2023-01-09T04:56:36.444Z,6.68
2023-01-09T04:59:03.936Z,6.69
2023-01-09T05:01:30.717Z,6.63
2023-01-09T05:03:57.458Z,6.66
2023-01-09T05:06:24.198Z,6.69
2023-01-09T05:08:50.836Z,6.55
2023-01-09T05:11:17.527Z,6.69
2023-01-09T05:13:44.131Z,6.73
2023-01-09T05:16:11.105Z,6.61
2023-01-09T05:18:37.788Z,6.63
2023-01-09T05:21:04.702Z,6.55
2023-01-09T05:23:31.301Z,6.62
2023-01-09T05:25:57.930Z,6.67
2023-01-09T05:28:24.525Z,6.80
2023-01-09T05:30:51.159Z,6.93
2023-01-09T05:33:17.778Z,6.79
2023-01-09T05:35:44.415Z,6.88
2023-01-09T05:38:11.642Z,6.75
2023-01-09T05:40:40.474Z,6.66
2023-01-09T05:43:07.509Z,6.56
2023-01-09T05:45:34.512Z,6.63
2023-01-09T05:48:01.153Z,6.45
2023-01-09T05:50:27.790Z,6.44
2023-01-09T05:52:55.531Z,6.58
2023-01-09T05:55:22.136Z,6.48
2023-01-09T05:57:48.711Z,6.50
2023-01-09T06:00:15.804Z,6.52
2023-01-09T06:02:42.565Z,6.65
2023-01-09T06:05:09.454Z,6.80
2023-01-09T06:07:39.330Z,6.80
2023-01-09T06:10:08.027Z,6.83
2023-01-09T06:12:34.686Z,6.86
2023-01-09T06:15:01.351Z,6.88
2023-01-09T06:17:28.064Z,6.93
2023-01-09T06:19:54.752Z,6.95
2023-01-09T06:22:21.356Z,6.94
2023-01-09T06:24:47.992Z,6.92
2023-01-09T06:27:16.011Z,7.02
2023-01-09T06:29:42.643Z,6.91
2023-01-09T06:32:09.239Z,6.95
2023-01-09T06:34:35.863Z,6.86
2023-01-09T06:37:02.473Z,6.98
2023-01-09T06:39:29.109Z,6.96
2023-01-09T06:41:55.771Z,7.06
2023-01-09T06:44:22.469Z,6.93
2023-01-09T06:46:49.147Z,6.88
2023-01-09T06:49:17.025Z,6.95
2023-01-09T06:51:43.667Z,6.94
2023-01-09T06:54:10.410Z,7.06
2023-01-09T06:56:37.079Z,7.09
2023-01-09T06:59:03.764Z,7.15
2023-01-09T07:01:30.464Z,7.15
2023-01-09T07:03:57.281Z,7.14
2023-01-09T07:06:23.905Z,7.15
2023-01-09T07:08:50.649Z,7.20
2023-01-09T07:11:17.255Z,7.15
2023-01-09T07:13:44.105Z,7.06
2023-01-09T07:16:10.966Z,7.09
2023-01-09T07:18:37.618Z,7.16
2023-01-09T07:21:06.321Z,7.10
2023-01-09T07:23:33.114Z,7.09
2023-01-09T07:25:59.897Z,7.01
2023-01-09T07:28:26.715Z,7.12
2023-01-09T07:30:53.369Z,7.05
2023-01-09T07:33:19.995Z,7.21
2023-01-09T07:35:46.689Z,7.17
2023-01-09T07:38:13.323Z,7.13
2023-01-09T07:40:39.970Z,7.12
2023-01-09T07:43:06.648Z,7.06
2023-01-09T07:45:33.277Z,7.21
2023-01-09T07:48:00.134Z,7.26
2023-01-09T07:50:26.741Z,7.36
2023-01-09T07:52:53.371Z,7.24
2023-01-09T07:55:20.047Z,7.38
2023-01-09T07:57:52.637Z,7.09
2023-01-09T08:00:21.127Z,7.04
2023-01-09T08:02:54.019Z,6.98
2023-01-09T08:05:21.117Z,6.92
2023-01-09T08:07:48.092Z,7.01
2023-01-09T08:10:15.118Z,7.03
2023-01-09T08:12:45.291Z,7.01
2023-01-09T08:15:12.333Z,7.09
2023-01-09T08:17:40.937Z,7.03
2023-01-09T08:20:07.796Z,7.04
2023-01-09T08:22:34.396Z,7.09
2023-01-09T08:25:01.000Z,7.13
2023-01-09T08:27:27.808Z,7.10
2023-01-09T08:29:54.418Z,7.27
2023-01-09T08:32:20.996Z,7.17
2023-01-09T08:34:47.725Z,7.18
2023-01-09T08:37:14.364Z,7.19
2023-01-09T08:39:40.995Z,7.27
2023-01-09T08:42:26.202Z,7.28
2023-01-09T08:45:11.554Z,7.38
2023-01-09T08:47:38.148Z,7.41
2023-01-09T08:50:04.976Z,7.52
2023-01-09T08:52:31.583Z,7.51
2023-01-09T08:54:58.198Z,7.57
2023-01-09T08:57:24.920Z,7.57
2023-01-09T08:59:51.605Z,7.59
2023-01-09T09:02:18.217Z,7.66
2023-01-09T09:04:44.892Z,7.57
2023-01-09T09:07:11.504Z,7.73
2023-01-09T09:09:38.125Z,7.58
2023-01-09T09:12:05.021Z,7.61
2023-01-09T09:14:50.315Z,7.93
2023-01-09T09:17:19.445Z,7.86
2023-01-09T09:19:46.296Z,7.79
2023-01-09T09:22:12.902Z,7.83
2023-01-09T09:24:39.568Z,7.88
2023-01-09T09:27:06.225Z,7.92
2023-01-09T09:29:32.926Z,8.00
2023-01-09T09:32:01.047Z,7.94
2023-01-09T09:34:27.764Z,8.08
2023-01-09T09:36:54.422Z,8.21
2023-01-09T09:39:21.078Z,8.05
2023-01-09T09:42:25.071Z,8.23
2023-01-09T09:45:05.655Z,8.16
2023-01-09T09:47:48.051Z,8.18
2023-01-09T09:50:31.841Z,8.06
2023-01-09T09:53:42.909Z,8.24
2023-01-09T09:56:14.302Z,8.40
2023-01-09T09:58:42.239Z,8.11
2023-01-09T10:01:09.302Z,8.05
2023-01-09T10:03:44.937Z,8.19
2023-01-09T10:06:30.632Z,8.14
2023-01-09T10:09:16.349Z,8.08
2023-01-09T10:11:50.325Z,7.85
2023-01-09T10:14:24.357Z,7.69
2023-01-09T10:16:57.201Z,7.68
2023-01-09T10:19:32.901Z,7.58
2023-01-09T10:22:02.519Z,7.70
2023-01-09T10:24:34.954Z,7.78
2023-01-09T10:27:05.152Z,7.93
2023-01-09T10:29:53.434Z,8.14
2023-01-09T10:32:19.914Z,8.00
2023-01-09T10:35:11.492Z,7.95
2023-01-09T10:37:40.172Z,7.79
2023-01-09T10:40:14.396Z,7.76
2023-01-09T10:43:09.223Z,7.89
2023-01-09T10:45:54.396Z,7.84
2023-01-09T10:48:35.814Z,7.93
2023-01-09T10:51:02.505Z,7.55
2023-01-09T10:53:32.645Z,7.59
2023-01-09T10:56:29.046Z,7.64
2023-01-09T10:58:55.726Z,7.59
2023-01-09T11:01:27.634Z,7.65
2023-01-09T11:03:54.370Z,7.60
2023-01-09T11:06:22.704Z,7.41
2023-01-09T11:08:50.785Z,7.39
2023-01-09T11:11:34.806Z,7.33
2023-01-09T11:14:18.404Z,7.48
2023-01-09T11:17:12.230Z,7.61
2023-01-09T11:19:38.841Z,7.86
2023-01-09T11:22:18.001Z,7.69
2023-01-09T11:24:44.936Z,7.68
2023-01-09T11:27:14.235Z,7.71
2023-01-09T11:29:41.636Z,7.63
2023-01-09T11:32:21.896Z,7.74
2023-01-09T11:34:48.546Z,7.90
2023-01-09T11:37:21.993Z,8.16
2023-01-09T11:39:49.148Z,8.30
2023-01-09T11:42:40.765Z,8.36
2023-01-09T11:45:14.609Z,8.27
2023-01-09T11:47:41.295Z,8.02
2023-01-09T11:50:18.676Z,7.67
2023-01-09T11:52:46.020Z,7.53
2023-01-09T11:55:15.465Z,7.54
2023-01-09T11:57:42.330Z,7.57
2023-01-09T12:00:42.517Z,7.48
2023-01-09T12:03:36.811Z,7.32
2023-01-09T12:06:20.641Z,7.31
2023-01-09T12:08:55.925Z,7.55
2023-01-09T12:11:41.265Z,7.43
2023-01-09T12:14:34.763Z,7.50
2023-01-09T12:17:18.422Z,7.42
2023-01-09T12:19:55.171Z,7.55
2023-01-09T12:23:10.322Z,7.46
2023-01-09T12:26:09.001Z,7.39
2023-01-09T12:28:42.528Z,7.40
2023-01-09T12:31:32.503Z,7.37
2023-01-09T12:34:08.131Z,7.50
2023-01-09T12:37:01.838Z,7.63
2023-01-09T12:39:45.200Z,7.61
2023-01-09T12:42:50.891Z,8.03
2023-01-09T12:45:41.842Z,7.93
2023-01-09T12:48:43.658Z,7.76
2023-01-09T12:51:19.383Z,7.58
2023-01-09T12:53:50.329Z,7.27
2023-01-09T12:56:20.185Z,7.13
2023-01-09T12:58:52.389Z,6.91
2023-01-09T13:01:25.627Z,7.02
2023-01-09T13:04:14.036Z,7.12
2023-01-09T13:06:43.637Z,7.16
2023-01-09T13:09:22.289Z,7.26
2023-01-09T13:12:08.134Z,7.28
2023-01-09T13:14:55.255Z,7.35
2023-01-09T13:17:41.021Z,7.25
2023-01-09T13:20:33.984Z,7.33
2023-01-09T13:23:00.865Z,7.49
2023-01-09T13:25:49.796Z,7.43
2023-01-09T13:28:25.366Z,7.41
2023-01-09T13:30:52.752Z,7.26
2023-01-09T13:33:23.461Z,7.27
2023-01-09T13:35:57.585Z,7.21
2023-01-09T13:38:25.412Z,7.19
2023-01-09T13:41:32.369Z,7.16
2023-01-09T13:44:06.565Z,7.14
2023-01-09T13:46:57.059Z,7.22
2023-01-09T13:49:33.265Z,7.25
2023-01-09T13:52:25.807Z,7.20
2023-01-09T13:54:55.507Z,7.15
2023-01-09T13:57:32.045Z,7.10
2023-01-09T14:00:00.945Z,6.93
2023-01-09T14:02:39.581Z,7.08
2023-01-09T14:05:11.427Z,7.02
2023-01-09T14:07:49.273Z,7.09
2023-01-09T14:10:22.622Z,7.26
2023-01-09T14:12:49.303Z,7.07
2023-01-09T14:15:40.627Z,7.00
2023-01-09T14:18:14.653Z,6.92
2023-01-09T14:20:42.768Z,6.93
2023-01-09T14:23:51.620Z,6.93
2023-01-09T14:26:21.445Z,6.93
2023-01-09T14:28:48.115Z,6.81
2023-01-09T14:31:27.871Z,6.93
2023-01-09T14:34:30.770Z,6.99
2023-01-09T14:36:59.610Z,7.06
2023-01-09T14:39:26.304Z,7.00
2023-01-09T14:41:57.972Z,7.07
2023-01-09T14:44:33.008Z,7.20
2023-01-09T14:47:03.327Z,7.17
2023-01-09T14:49:39.617Z,7.10
2023-01-09T14:52:13.239Z,7.03
2023-01-09T14:54:43.625Z,6.99
2023-01-09T14:57:26.029Z,7.10
2023-01-09T15:00:22.150Z,7.25
2023-01-09T15:02:48.820Z,7.02
2023-01-09T15:05:20.801Z,6.89
2023-01-09T15:07:59.320Z,7.00
2023-01-09T15:10:28.378Z,7.03
2023-01-09T15:12:55.284Z,7.20
2023-01-09T15:15:22.248Z,7.34
2023-01-09T15:17:54.313Z,7.15
2023-01-09T15:20:27.231Z,7.14
2023-01-09T15:22:55.219Z,7.12
2023-01-09T15:25:38.015Z,7.15
2023-01-09T15:28:30.980Z,7.11
2023-01-09T15:31:03.513Z,7.03
2023-01-09T15:33:30.090Z,6.90
2023-01-09T15:36:02.162Z,7.00
2023-01-09T15:38:30.451Z,6.83
2023-01-09T15:41:02.240Z,6.87
2023-01-09T15:43:29.250Z,6.83
2023-01-09T15:45:56.155Z,6.71
2023-01-09T15:48:26.584Z,6.58
2023-01-09T15:50:55.938Z,6.44
2023-01-09T15:53:23.729Z,6.53
2023-01-09T15:56:12.802Z,6.63
2023-01-09T15:58:40.806Z,6.45
2023-01-09T16:01:12.709Z,6.54
2023-01-09T16:03:39.442Z,6.52
2023-01-09T16:06:10.528Z,6.44
2023-01-09T16:08:39.327Z,6.44
2023-01-09T16:11:09.854Z,6.50
2023-01-09T16:13:43.396Z,6.32
2023-01-09T16:16:10.089Z,6.39
2023-01-09T16:18:37.678Z,6.32
2023-01-09T16:21:22.361Z,6.34
2023-01-09T16:24:00.778Z,6.30
2023-01-09T16:26:28.668Z,6.29
2023-01-09T16:28:55.335Z,6.22
2023-01-09T16:31:24.712Z,6.29
2023-01-09T16:33:59.433Z,6.43
2023-01-09T16:36:26.625Z,6.28
2023-01-09T16:38:54.049Z,6.17
2023-01-09T16:41:40.528Z,6.03
2023-01-09T16:44:09.735Z,6.18
2023-01-09T16:46:41.585Z,6.11
2023-01-09T16:49:28.844Z,6.05
2023-01-09T16:51:55.688Z,6.13
2023-01-09T16:54:22.280Z,6.06
2023-01-09T16:56:50.193Z,6.09
2023-01-09T16:59:24.486Z,6.17
2023-01-09T17:01:51.712Z,6.05
2023-01-09T17:04:20.147Z,5.96
2023-01-09T17:06:48.045Z,6.04
2023-01-09T17:09:16.826Z,5.98
2023-01-09T17:11:43.481Z,6.09
2023-01-09T17:14:11.870Z,6.26
2023-01-09T17:16:38.679Z,6.17
2023-01-09T17:19:05.330Z,6.07
2023-01-09T17:21:32.257Z,5.98
2023-01-09T17:24:18.057Z,5.71
2023-01-09T17:27:05.375Z,5.72
2023-01-09T17:29:31.994Z,5.82
2023-01-09T17:31:58.671Z,5.65
2023-01-09T17:34:25.311Z,5.37
2023-01-09T17:36:55.492Z,5.74
2023-01-09T17:39:22.924Z,5.83
2023-01-09T17:41:49.567Z,5.92
2023-01-09T17:44:16.203Z,5.76
2023-01-09T17:46:43.519Z,5.77
2023-01-09T17:49:15.307Z,5.62
2023-01-09T17:51:41.933Z,5.67
2023-01-09T17:54:08.929Z,5.58
2023-01-09T17:56:37.322Z,5.46
2023-01-09T17:59:04.835Z,5.89
2023-01-09T18:01:31.719Z,5.71
2023-01-09T18:03:58.500Z,5.53
2023-01-09T18:06:25.308Z,5.59
2023-01-09T18:08:53.153Z,5.56
2023-01-09T18:11:20.529Z,5.47
2023-01-09T18:13:47.913Z,5.67
2023-01-09T18:16:20.431Z,5.51
2023-01-09T18:18:47.412Z,5.55
2023-01-09T18:21:18.614Z,5.48
2023-01-09T18:23:47.553Z,5.56
2023-01-09T18:26:20.506Z,5.53
2023-01-09T18:28:48.671Z,5.70
2023-01-09T18:31:17.385Z,5.51
2023-01-09T18:33:47.102Z,5.30
2023-01-09T18:36:13.964Z,5.15
2023-01-09T18:38:40.589Z,5.34
2023-01-09T18:41:07.323Z,4.83
2023-01-09T18:43:33.942Z,5.33
2023-01-09T18:46:08.213Z,5.82
2023-01-09T18:48:34.889Z,6.15
2023-01-09T18:51:03.068Z,6.12
2023-01-09T18:53:29.991Z,6.09
2023-01-09T18:55:56.655Z,5.80
2023-01-09T18:58:24.297Z,5.50
2023-01-09T19:00:51.992Z,5.37
2023-01-09T19:03:18.621Z,5.49
2023-01-09T19:05:45.263Z,5.43
2023-01-09T19:08:11.948Z,5.35
2023-01-09T19:10:38.601Z,5.41
2023-01-09T19:13:05.227Z,5.41
2023-01-09T19:15:31.969Z,5.38
2023-01-09T19:18:01.510Z,5.26
2023-01-09T19:20:30.436Z,5.34
2023-01-09T19:22:57.220Z,5.12
2023-01-09T19:25:26.759Z,5.46
2023-01-09T19:27:55.734Z,5.45
2023-01-09T19:30:22.696Z,5.54
2023-01-09T19:32:49.925Z,5.49
2023-01-09T19:35:17.550Z,5.55
2023-01-09T19:37:44.507Z,5.55
2023-01-09T19:40:11.764Z,5.64
2023-01-09T19:42:43.756Z,5.35
2023-01-09T19:45:10.499Z,5.47
2023-01-09T19:47:37.684Z,5.61
2023-01-09T19:50:08.393Z,5.51
2023-01-09T19:52:35.948Z,5.47
2023-01-09T19:55:03.260Z,5.38
2023-01-09T19:57:37.078Z,5.30
2023-01-09T20:00:08.904Z,5.24
2023-01-09T20:02:42.327Z,5.36
2023-01-09T20:05:09.312Z,5.44
2023-01-09T20:07:36.167Z,5.34
2023-01-09T20:10:02.771Z,5.42
2023-01-09T20:12:31.754Z,5.34
2023-01-09T20:14:58.459Z,5.37
2023-01-09T20:17:25.218Z,5.36
2023-01-09T20:19:56.339Z,5.49
2023-01-09T20:22:25.884Z,5.49
2023-01-09T20:24:55.226Z,5.38
2023-01-09T20:27:21.948Z,5.46
2023-01-09T20:29:48.553Z,5.45
2023-01-09T20:32:15.349Z,5.41
2023-01-09T20:34:43.804Z,5.44
2023-01-09T20:37:13.437Z,5.65
2023-01-09T20:39:42.703Z,5.58
2023-01-09T20:42:11.876Z,5.52
2023-01-09T20:44:38.497Z,5.63
2023-01-09T20:47:05.188Z,5.71
2023-01-09T20:49:31.869Z,5.58
2023-01-09T20:51:58.624Z,5.45
2023-01-09T20:54:25.289Z,5.46
2023-01-09T20:56:51.970Z,5.60
2023-01-09T20:59:20.925Z,5.58
2023-01-09T21:01:47.778Z,5.55
2023-01-09T21:04:21.612Z,5.55
2023-01-09T21:06:50.059Z,5.44
2023-01-09T21:09:27.743Z,5.45
2023-01-09T21:11:56.919Z,5.49
2023-01-09T21:14:23.586Z,5.52
2023-01-09T21:16:54.500Z,5.69
2023-01-09T21:19:25.287Z,5.73
2023-01-09T21:21:53.440Z,5.60
2023-01-09T21:24:20.273Z,5.57
2023-01-09T21:26:47.001Z,5.49
2023-01-09T21:29:13.600Z,5.49
2023-01-09T21:31:40.336Z,5.46
2023-01-09T21:34:07.449Z,5.48
2023-01-09T21:36:35.397Z,5.59
2023-01-09T21:39:02.379Z,5.42
2023-01-09T21:41:47.562Z,5.33
2023-01-09T21:44:32.973Z,5.18
2023-01-09T21:47:02.784Z,5.56
2023-01-09T21:49:31.433Z,5.58
2023-01-09T21:51:58.282Z,5.44
2023-01-09T21:54:25.030Z,5.36
2023-01-09T21:56:57.502Z,5.34
2023-01-09T21:59:26.270Z,5.33
2023-01-09T22:01:52.948Z,5.40
2023-01-09T22:04:23.217Z,5.27
2023-01-09T22:06:49.939Z,5.17
2023-01-09T22:09:16.739Z,5.27
2023-01-09T22:11:43.816Z,5.44
2023-01-09T22:14:14.806Z,5.36
2023-01-09T22:16:43.750Z,5.41
2023-01-09T22:19:11.502Z,5.44
2023-01-09T22:21:38.678Z,5.12
2023-01-09T22:24:06.445Z,5.30
2023-01-09T22:26:33.610Z,5.29
2023-01-09T22:29:00.278Z,5.41
2023-01-09T22:31:29.321Z,5.22
2023-01-09T22:33:57.865Z,5.07
2023-01-09T22:36:24.719Z,4.72
2023-01-09T22:38:53.819Z,4.63
2023-01-09T22:41:21.028Z,4.38
2023-01-09T22:43:47.619Z,4.72
2023-01-09T22:46:14.325Z,5.04
2023-01-09T22:48:42.068Z,4.97
2023-01-09T22:51:11.528Z,4.96
2023-01-09T22:53:38.285Z,4.92
2023-01-09T22:56:05.814Z,4.74
2023-01-09T22:58:32.589Z,4.77
2023-01-09T23:00:59.296Z,4.78
2023-01-09T23:03:38.082Z,4.87
2023-01-09T23:06:12.081Z,4.84
2023-01-09T23:08:38.725Z,4.64
2023-01-09T23:11:06.975Z,4.68
2023-01-09T23:13:33.609Z,4.74
2023-01-09T23:16:01.789Z,4.73
2023-01-09T23:18:28.502Z,4.96
2023-01-09T23:21:00.538Z,4.93
2023-01-09T23:23:27.507Z,4.88
2023-01-09T23:25:55.719Z,4.75
2023-01-09T23:28:22.719Z,4.65
2023-01-09T23:30:49.382Z,4.38
2023-01-09T23:33:16.695Z,4.50
2023-01-09T23:35:44.098Z,4.62
2023-01-09T23:38:13.764Z,4.65
2023-01-09T23:40:41.566Z,4.75
2023-01-09T23:43:13.316Z,4.70
2023-01-09T23:45:41.234Z,4.73
2023-01-09T23:48:09.112Z,4.88
2023-01-09T23:50:35.890Z,4.83
2023-01-09T23:53:02.548Z,4.73
2023-01-09T23:55:29.304Z,4.68
2023-01-09T23:57:55.939Z,4.57
